Time;durP1;ratioP1;P1;durP2;ratioP2;P2;SDS_P1;SDS_P2;PMS_P1;PMS_P2;Temp;Humidity;BMP_temperature;BMP_pressure;BME280_temperature;BME280_humidity;BME280_pressure;Samples;Min_cycle;Max_cycle;Signal;HPM_P1;HPM_P2
2023/07/13 00:01:17;;;;;;;;;25.33;19.33;;;;;22.39;94.80;99336.69;6313112;20;3590860;-48
2023/07/13 00:03:45;;;;;;;;;19.00;19.00;;;;;22.50;94.54;99332.69;6318915;20;3578374;-49
2023/07/13 00:06:14;;;;;;;;;19.67;18.67;;;;;22.61;93.56;99342.38;6281148;20;3583550;-46
2023/07/13 00:08:43;;;;;;;;;21.67;21.67;;;;;22.55;93.59;99344.81;6314748;20;3576456;-46
2023/07/13 00:11:11;;;;;;;;;25.00;23.67;;;;;22.41;94.19;99347.44;6285460;20;3582578;-46
2023/07/13 00:13:40;;;;;;;;;25.67;21.00;;;;;22.37;95.10;99357.91;6290296;20;3577306;-46
2023/07/13 00:16:11;;;;;;;;;25.00;22.33;;;;;22.27;95.02;99360.00;6288503;20;3578397;-44
2023/07/13 00:18:40;;;;;;;;;21.67;20.33;;;;;22.20;94.61;99387.22;6289954;20;3569040;-47
2023/07/13 00:21:08;;;;;;;;;22.00;19.00;;;;;22.09;95.37;99417.63;6288356;20;3583646;-45
2023/07/13 00:23:41;;;;;;;;;22.00;19.67;;;;;22.29;94.50;99397.09;6286491;20;2844021;-44
2023/07/13 00:26:12;;;;;;;;;21.33;21.00;;;;;22.17;95.23;99408.53;6320905;20;3577338;-46
2023/07/13 00:28:41;;;;;;;;;22.67;21.00;;;;;22.27;95.07;99406.50;6287833;20;3573206;-46
2023/07/13 00:31:14;;;;;;;;;22.67;22.00;;;;;22.52;94.12;99410.00;6290186;20;3588799;-47
2023/07/13 00:33:43;;;;;;;;;25.00;24.67;;;;;22.62;94.51;99410.63;6289407;20;3594087;-49
2023/07/13 00:36:13;;;;;;;;;27.25;24.75;;;;;22.50;95.00;99410.16;6286932;20;3600483;-47
2023/07/13 00:38:43;;;;;;;;;21.67;21.33;;;;;22.51;95.37;99405.53;6317943;20;3574242;-49
2023/07/13 00:41:12;;;;;;;;;24.67;22.33;;;;;22.72;95.80;99385.75;6316182;20;3592997;-50
2023/07/13 00:43:40;;;;;;;;;27.33;26.33;;;;;22.71;96.12;99375.84;6284467;20;3588775;-48
2023/07/13 00:46:24;;;;;;;;;23.00;23.00;;;;;22.84;96.32;99375.25;6286575;20;3594154;-45
2023/07/13 00:48:56;;;;;;;;;25.33;22.33;;;;;23.04;95.61;99368.31;6286089;20;1902349;-46
2023/07/13 00:51:37;;;;;;;;;22.00;22.00;;;;;23.06;95.54;99363.47;6315636;20;3575313;-47
2023/07/13 00:54:11;;;;;;;;;14.00;13.67;;;;;23.14;96.53;99357.94;6321492;20;3520552;-44
2023/07/13 00:56:44;;;;;;;;;16.00;13.00;;;;;23.21;95.78;99349.84;6316159;20;2808819;-46
2023/07/13 00:59:15;;;;;;;;;14.33;14.33;;;;;23.25;95.67;99337.50;6285732;20;2812884;-45
2023/07/13 01:01:43;;;;;;;;;14.33;14.33;;;;;23.23;96.14;99332.19;6315781;20;3539926;-48
2023/07/13 01:04:12;;;;;;;;;16.00;16.00;;;;;23.07;96.25;99326.03;6286869;20;2833695;-45
2023/07/13 01:06:43;;;;;;;;;11.00;11.00;;;;;23.07;96.13;99317.81;6286557;20;2788788;-48
2023/07/13 01:09:12;;;;;;;;;11.33;10.00;;;;;22.95;96.51;99289.94;6320200;20;2788885;-46
2023/07/13 01:11:41;;;;;;;;;11.00;10.67;;;;;22.85;96.97;99270.19;6317079;20;3507581;-48
2023/07/13 01:14:09;;;;;;;;;10.33;8.67;;;;;22.92;95.94;99272.00;6322940;20;2774315;-44
2023/07/13 01:16:40;;;;;;;;;10.67;10.00;;;;;22.82;96.64;99268.66;6315682;20;3520035;-47
2023/07/13 01:19:35;;;;;;;;;10.67;9.33;;;;;22.82;96.68;99252.25;6321144;20;2780485;-46
2023/07/13 01:22:17;;;;;;;;;11.00;9.00;;;;;22.71;96.13;99259.00;6315741;20;3490337;-45
2023/07/13 01:24:47;;;;;;;;;7.33;7.33;;;;;22.81;95.76;99266.13;6316770;20;2754384;-45
2023/07/13 01:27:21;;;;;;;;;11.33;10.00;;;;;22.76;95.73;99263.94;6313223;20;3509720;-44
2023/07/13 01:29:49;;;;;;;;;10.33;8.00;;;;;22.66;95.56;99257.84;6315107;20;3483680;-46
2023/07/13 01:32:23;;;;;;;;;9.00;7.00;;;;;22.60;96.98;99256.69;6323204;20;2754876;-47
2023/07/13 01:34:54;;;;;;;;;10.00;10.00;;;;;22.46;97.93;99250.16;6322888;20;2783683;-45
2023/07/13 01:37:24;;;;;;;;;8.33;8.33;;;;;22.51;98.04;99253.19;6314125;20;3460796;-45
2023/07/13 01:39:53;;;;;;;;;9.33;8.33;;;;;22.46;97.97;99244.66;6315536;20;2759215;-44
2023/07/13 01:42:20;;;;;;;;;7.33;7.33;;;;;22.53;97.09;99244.78;6323969;20;2752357;-47
2023/07/13 01:44:49;;;;;;;;;10.67;9.67;;;;;22.36;96.97;99244.06;6319679;20;2786779;-49
2023/07/13 01:47:17;;;;;;;;;11.00;9.33;;;;;22.36;97.59;99244.06;6314385;20;2783634;-46
2023/07/13 01:49:47;;;;;;;;;14.67;11.67;;;;;22.37;96.92;99232.06;6315727;20;3513764;-46
2023/07/13 01:52:15;;;;;;;;;11.00;8.33;;;;;22.39;97.53;99235.47;6323537;20;2778362;-46
2023/07/13 01:54:43;;;;;;;;;9.67;8.67;;;;;22.41;97.50;99247.09;6322585;20;2758648;-46
2023/07/13 01:57:11;;;;;;;;;11.67;7.67;;;;;22.28;97.44;99247.69;6320718;20;2764978;-49
2023/07/13 01:59:39;;;;;;;;;9.00;7.67;;;;;21.92;99.99;99222.75;6319810;20;2747256;-45
2023/07/13 02:02:07;;;;;;;;;11.33;10.33;;;;;22.00;100.00;99219.97;6317464;20;2794075;-44
2023/07/13 02:04:35;;;;;;;;;11.67;10.33;;;;;22.06;100.00;99216.50;6317629;20;2778406;-44
2023/07/13 02:07:03;;;;;;;;;11.00;11.00;;;;;22.29;99.00;99232.13;6313594;20;3523212;-46
2023/07/13 02:09:31;;;;;;;;;10.67;10.00;;;;;22.06;100.00;99235.63;6283194;20;3513853;-46
2023/07/13 02:11:59;;;;;;;;;14.33;11.67;;;;;21.85;100.00;99210.81;6315518;20;3511736;-47
2023/07/13 02:14:28;;;;;;;;;9.33;9.00;;;;;21.67;100.00;99198.28;6310758;20;2758709;-47
2023/07/13 02:16:56;;;;;;;;;11.67;11.67;;;;;21.73;100.00;99187.66;6313094;20;3504421;-45
2023/07/13 02:19:24;;;;;;;;;12.33;12.00;;;;;21.79;100.00;99192.41;6315318;20;3515002;-45
2023/07/13 02:21:52;;;;;;;;;12.67;12.00;;;;;21.88;100.00;99204.97;6282210;20;2483730;-44
2023/07/13 02:24:20;;;;;;;;;12.67;11.67;;;;;21.83;100.00;99211.00;6318910;20;3530574;-45
2023/07/13 02:26:49;;;;;;;;;14.33;13.67;;;;;21.69;100.00;99212.59;6312355;20;3509712;-43
2023/07/13 02:29:17;;;;;;;;;14.67;13.00;;;;;21.72;100.00;99196.88;6285692;20;2490421;-46
2023/07/13 02:31:45;;;;;;;;;13.00;13.00;;;;;21.37;100.00;99193.56;6316374;20;2483687;-44
2023/07/13 02:34:13;;;;;;;;;12.00;12.00;;;;;21.36;100.00;99194.63;6313306;20;3501434;-45
2023/07/13 02:36:41;;;;;;;;;18.33;13.67;;;;;21.54;100.00;99195.25;6313692;20;3539853;-46
2023/07/13 02:39:12;;;;;;;;;16.00;15.00;;;;;21.33;100.00;99208.59;6284667;20;3533563;-45
2023/07/13 02:41:40;;;;;;;;;13.00;13.00;;;;;21.32;100.00;99205.00;6314104;20;3500237;-45
2023/07/13 02:44:09;;;;;;;;;12.33;12.33;;;;;21.34;100.00;99204.84;6313449;20;3512854;-45
2023/07/13 02:46:37;;;;;;;;;11.67;11.67;;;;;21.12;100.00;99201.84;6286635;20;2797157;-45
2023/07/13 02:49:06;;;;;;;;;15.50;13.50;;;;;21.30;100.00;99218.00;6315739;20;2801314;-47
2023/07/13 02:51:34;;;;;;;;;13.67;13.67;;;;;21.02;100.00;99223.00;6282379;20;3524361;-45
2023/07/13 02:54:04;;;;;;;;;14.50;13.50;;;;;21.07;100.00;99222.50;6282274;20;2785736;-45
2023/07/13 02:56:33;;;;;;;;;16.00;12.67;;;;;21.34;100.00;99213.88;6318030;20;3538876;-44
2023/07/13 02:59:01;;;;;;;;;13.33;10.67;;;;;21.30;100.00;99218.00;6315392;20;2487834;-45
2023/07/13 03:01:29;;;;;;;;;14.33;13.67;;;;;21.11;100.00;99216.50;6313757;20;3526289;-45
2023/07/13 03:03:57;;;;;;;;;12.33;12.33;;;;;20.95;100.00;99224.72;6285017;20;3525262;-44
2023/07/13 03:06:30;;;;;;;;;13.67;12.67;;;;;21.19;100.00;99232.00;6313433;20;3511679;-46
2023/07/13 03:08:59;;;;;;;;;15.33;15.33;;;;;20.94;100.00;99237.53;6288378;20;3551309;-46
2023/07/13 03:11:28;;;;;;;;;15.33;13.00;;;;;20.72;100.00;99239.09;6314366;20;3525391;-45
2023/07/13 03:13:56;;;;;;;;;14.33;14.33;;;;;20.60;100.00;99241.28;6285624;20;3533574;-45
2023/07/13 03:16:24;;;;;;;;;15.00;15.00;;;;;20.62;100.00;99238.41;6313895;20;2802414;-46
2023/07/13 03:18:53;;;;;;;;;13.00;13.00;;;;;20.67;100.00;99240.59;6288069;20;2804494;-45
2023/07/13 03:21:21;;;;;;;;;16.67;13.67;;;;;20.61;100.00;99237.53;6315378;20;2483728;-45
2023/07/13 03:23:49;;;;;;;;;16.50;16.00;;;;;20.78;100.00;99259.38;6312764;20;2827359;-47
2023/07/13 03:26:20;;;;;;;;;16.50;14.50;;;;;20.76;100.00;99248.63;6283463;20;2813941;-48
2023/07/13 03:28:48;;;;;;;;;17.00;13.33;;;;;21.05;100.00;99261.72;6284926;20;3537755;-46
2023/07/13 03:31:28;;;;;;;;;15.33;14.00;;;;;20.98;100.00;99268.03;6281631;20;3526388;-45
2023/07/13 03:33:57;;;;;;;;;14.00;13.00;;;;;21.21;100.00;99266.31;6281765;20;2800273;-47
2023/07/13 03:36:29;;;;;;;;;15.00;15.00;;;;;21.32;100.00;99256.06;6282724;20;3533696;-47
2023/07/13 03:39:00;;;;;;;;;15.33;14.00;;;;;21.36;100.00;99260.16;6318754;20;3537765;-49
2023/07/13 03:41:29;;;;;;;;;16.50;15.00;;;;;21.27;100.00;99256.56;6312585;20;2804942;-50
2023/07/13 03:43:57;;;;;;;;;15.67;15.00;;;;;21.39;100.00;99243.44;6283570;20;3545045;-50
2023/07/13 03:46:25;;;;;;;;;16.50;16.50;;;;;21.26;100.00;99230.31;6281502;20;2825269;-47
2023/07/13 03:48:54;;;;;;;;;19.33;17.33;;;;;21.46;100.00;99234.38;6290720;20;3571140;-51
2023/07/13 03:51:25;;;;;;;;;19.67;19.33;;;;;21.37;100.00;99231.81;6287163;20;3570111;-51
2023/07/13 03:53:53;;;;;;;;;16.00;14.50;;;;;21.54;100.00;99227.16;6286970;20;2821148;-52
2023/07/13 03:56:21;;;;;;;;;16.00;16.00;;;;;21.78;100.00;99240.75;6286867;20;2823242;-46
2023/07/13 03:58:50;;;;;;;;;17.00;17.00;;;;;21.70;100.00;99230.69;6291128;20;3551242;-48
2023/07/13 04:01:21;;;;;;;;;19.67;18.33;;;;;21.67;100.00;99230.22;6317614;20;3570101;-48
2023/07/13 04:03:50;;;;;;;;;20.33;16.33;;;;;21.90;100.00;99230.25;6291117;20;3571031;-49
2023/07/13 04:06:29;;;;;;;;;17.67;17.33;;;;;22.06;100.00;99238.38;6287040;20;3573162;-47
2023/07/13 04:09:01;;;;;;;;;16.00;16.00;;;;;22.06;100.00;99240.25;6290874;20;3552712;-49
2023/07/13 04:11:31;;;;;;;;;19.00;16.00;;;;;21.78;100.00;99239.91;6289031;20;3564921;-50
2023/07/13 04:14:00;;;;;;;;;19.67;17.33;;;;;22.10;100.00;99250.66;6288578;20;3566968;-49
2023/07/13 04:16:28;;;;;;;;;18.67;17.00;;;;;22.26;100.00;99254.38;6289434;20;3569157;-49
2023/07/13 04:18:59;;;;;;;;;21.67;20.67;;;;;22.33;100.00;99255.38;6290552;20;3581518;-47
2023/07/13 04:21:31;;;;;;;;;16.67;16.67;;;;;22.41;100.00;99266.25;6287822;20;3576395;-48
2023/07/13 04:23:59;;;;;;;;;19.00;16.00;;;;;22.42;100.00;99287.09;6288708;20;3561720;-49
2023/07/13 04:26:27;;;;;;;;;20.00;17.00;;;;;22.45;100.00;99294.94;6286459;20;3577333;-49
2023/07/13 04:28:57;;;;;;;;;23.33;18.00;;;;;22.40;100.00;99289.16;6290044;20;3581537;-46
2023/07/13 04:31:25;;;;;;;;;18.67;18.67;;;;;22.57;100.00;99320.84;6289577;20;3569019;-48
2023/07/13 04:33:53;;;;;;;;;17.00;17.00;;;;;22.48;100.00;99332.88;6284879;20;2835828;-50
2023/07/13 04:36:22;;;;;;;;;17.67;17.67;;;;;22.57;100.00;99329.06;6285546;20;2839882;-50
2023/07/13 04:38:51;;;;;;;;;19.00;16.00;;;;;22.45;100.00;99326.91;6318489;20;2827353;-47
2023/07/13 04:41:19;;;;;;;;;17.00;15.00;;;;;22.37;100.00;99333.28;6284777;20;2821057;-48
2023/07/13 04:43:48;;;;;;;;;16.50;16.50;;;;;22.39;100.00;99336.69;6284282;20;2825422;-48
2023/07/13 04:46:18;;;;;;;;;15.67;14.33;;;;;22.48;100.00;99330.13;6286354;20;3550280;-51
2023/07/13 04:48:50;;;;;;;;;18.00;16.50;;;;;22.48;100.00;99337.50;6286035;20;2826322;-51
2023/07/13 04:51:19;;;;;;;;;18.00;15.50;;;;;22.50;100.00;99341.75;6284242;20;2821105;-49
2023/07/13 04:53:47;;;;;;;;;15.00;13.00;;;;;22.53;100.00;99349.59;6291141;20;3499274;-52
2023/07/13 04:56:15;;;;;;;;;17.00;15.50;;;;;22.51;100.00;99368.09;6317077;20;2825327;-48
2023/07/13 04:58:43;;;;;;;;;19.00;15.00;;;;;22.49;100.00;99367.44;6285861;20;2812828;-50
2023/07/13 05:01:12;;;;;;;;;17.00;15.00;;;;;22.35;100.00;99359.97;6282094;20;2816957;-47
2023/07/13 05:03:40;;;;;;;;;15.50;15.50;;;;;22.49;100.00;99363.84;6284352;20;2821279;-53
2023/07/13 05:06:13;;;;;;;;;14.33;14.33;;;;;22.53;100.00;99370.66;6288172;20;3530558;-50
2023/07/13 05:08:41;;;;;;;;;17.00;15.00;;;;;22.29;100.00;99366.16;6317233;20;2818082;-48
2023/07/13 05:11:09;;;;;;;;;13.67;12.00;;;;;22.24;100.00;99372.16;6286520;20;2492044;-48
2023/07/13 05:13:38;;;;;;;;;15.67;13.67;;;;;22.33;100.00;99367.50;6316938;20;2489879;-47
2023/07/13 05:16:07;;;;;;;;;14.00;14.00;;;;;22.35;100.00;99359.97;6314842;20;2809652;-48
2023/07/13 05:18:36;;;;;;;;;17.50;14.50;;;;;22.36;100.00;99358.94;6284090;20;2810756;-47
2023/07/13 05:21:10;;;;;;;;;17.00;14.00;;;;;22.29;100.00;99360.69;6289059;20;3545033;-47
2023/07/13 05:23:41;;;;;;;;;18.00;17.00;;;;;22.19;100.00;99360.03;6313540;20;2834645;-47
2023/07/13 05:26:10;;;;;;;;;17.33;14.67;;;;;22.20;100.00;99359.03;6284186;20;3539914;-51
2023/07/13 05:28:38;;;;;;;;;14.00;14.00;;;;;22.21;100.00;99371.66;6315063;20;2808620;-47
2023/07/13 05:31:10;;;;;;;;;14.33;13.00;;;;;22.00;100.00;99367.59;6283322;20;3533630;-47
2023/07/13 05:33:39;;;;;;;;;14.33;14.00;;;;;21.95;100.00;99367.25;6286499;20;3528528;-50
2023/07/13 05:36:08;;;;;;;;;18.67;15.67;;;;;21.96;100.00;99357.19;6314982;20;2835822;-52
2023/07/13 05:38:37;;;;;;;;;19.33;16.33;;;;;21.66;100.00;99349.56;6314320;20;3567183;-51
2023/07/13 05:41:06;;;;;;;;;18.67;17.67;;;;;21.72;100.00;99347.16;6284163;20;3569055;-48
2023/07/13 05:43:34;;;;;;;;;19.50;15.50;;;;;21.76;100.00;99359.47;6276061;20;2829495;-47
2023/07/13 05:46:02;;;;;;;;;17.33;14.33;;;;;21.65;100.00;99375.19;6283999;20;3554448;-47
2023/07/13 05:48:31;;;;;;;;;20.00;16.00;;;;;21.55;100.00;99398.28;6282180;20;2832718;-51
2023/07/13 05:50:59;;;;;;;;;15.00;13.67;;;;;21.47;100.00;99407.31;6285203;20;2492061;-47
2023/07/13 05:53:27;;;;;;;;;15.50;15.50;;;;;21.43;100.00;99428.69;6314688;20;2811733;-45
2023/07/13 05:55:56;;;;;;;;;13.33;13.00;;;;;21.33;100.00;99443.47;6284010;20;3529442;-49
2023/07/13 05:58:27;;;;;;;;;15.67;13.33;;;;;21.32;100.00;99448.06;6286114;20;3543995;-51
2023/07/13 06:01:10;;;;;;;;;12.67;11.67;;;;;21.23;100.00;99449.09;6311591;20;3522159;-47
2023/07/13 06:03:39;;;;;;;;;10.00;10.00;;;;;21.16;100.00;99459.84;6312171;20;3504454;-46
2023/07/13 06:06:10;;;;;;;;;15.00;12.33;;;;;20.97;100.00;99466.44;6313441;20;2787909;-47
2023/07/13 06:08:39;;;;;;;;;9.33;8.67;;;;;20.66;100.00;99477.09;6314785;20;2756543;-46
2023/07/13 06:11:16;;;;;;;;;8.00;6.60;;;;;20.67;100.00;99486.13;6339758;20;2735729;-51
2023/07/13 06:13:44;;;;;;;;;8.67;5.33;;;;;20.51;100.00;99492.34;6315437;20;2750369;-46
2023/07/13 06:16:13;;;;;;;;;9.00;9.00;;;;;20.58;100.00;99472.44;6314466;20;2755569;-46
2023/07/13 06:18:43;;;;;;;;;6.40;6.40;;;;;20.42;100.00;99476.97;6341129;20;2746245;-45
2023/07/13 06:21:16;;;;;;;;;7.00;7.00;;;;;20.44;100.00;99447.66;6309087;20;2748274;-44
2023/07/13 06:23:48;;;;;;;;;6.60;6.60;;;;;20.45;100.00;99417.47;6339112;20;2739950;-46
2023/07/13 06:26:19;;;;;;;;;7.20;7.20;;;;;20.57;100.00;99369.81;6306149;20;2748199;-45
2023/07/13 06:28:48;;;;;;;;;7.00;5.60;;;;;20.50;100.00;99291.53;6310078;20;2744002;-44
2023/07/13 06:31:17;;;;;;;;;6.20;4.40;;;;;20.23;100.00;99173.56;6307776;20;2750289;-44
2023/07/13 06:33:48;;;;;;;;;6.83;6.33;;;;;20.08;100.00;99109.84;6331410;20;1796247;-48
2023/07/13 06:36:18;;;;;;;;;5.00;5.00;;;;;20.01;100.00;99114.25;6337932;20;2745296;-48
2023/07/13 06:38:47;;;;;;;;;5.00;5.00;;;;;20.01;100.00;99166.03;6310824;20;2734696;-48
2023/07/13 06:41:17;;;;;;;;;4.80;4.80;;;;;19.99;100.00;99114.44;6341099;20;2752397;-46
2023/07/13 06:43:46;;;;;;;;;5.20;4.80;;;;;19.95;100.00;99141.16;6305544;20;2746144;-47
2023/07/13 06:46:15;;;;;;;;;5.00;5.00;;;;;19.93;100.00;99096.88;6308648;20;2728444;-47
2023/07/13 06:48:44;;;;;;;;;6.40;4.60;;;;;19.94;100.00;99106.75;6342032;20;2747229;-47
2023/07/13 06:51:14;;;;;;;;;5.20;5.20;;;;;20.15;100.00;99225.34;6309403;20;2734649;-46
2023/07/13 06:53:43;;;;;;;;;6.40;5.60;;;;;20.28;100.00;99176.63;6340622;20;2748195;-49
2023/07/13 06:56:12;;;;;;;;;9.00;5.00;;;;;20.27;100.00;99177.63;6341426;20;2736781;-46
2023/07/13 06:58:41;;;;;;;;;5.60;5.60;;;;;20.26;100.00;99172.38;6341567;20;2738833;-47
2023/07/13 07:01:12;;;;;;;;;6.86;5.57;;;;;20.33;100.00;99163.34;6360032;20;3448201;-53
2023/07/13 07:03:42;;;;;;;;;3.60;3.60;;;;;20.44;100.00;99158.59;6338924;20;2751341;-49
2023/07/13 07:06:17;;;;;;;;;3.60;3.60;;;;;20.46;100.00;99183.78;6307107;20;2754554;-48
2023/07/13 07:08:46;;;;;;;;;5.00;5.00;;;;;20.52;100.00;99177.66;6306342;20;2748261;-49
2023/07/13 07:11:24;;;;;;;;;5.00;5.00;;;;;20.66;100.00;99187.91;6309126;20;2741983;-49
2023/07/13 07:13:54;;;;;;;;;3.40;1.80;;;;;20.54;100.00;99192.03;6340796;20;2752424;-47
2023/07/13 07:16:25;;;;;;;;;5.40;5.40;;;;;20.63;100.00;99199.16;6305139;20;2743077;-52
2023/07/13 07:18:54;;;;;;;;;4.20;4.20;;;;;20.68;100.00;99194.06;6308301;20;2752375;-49
2023/07/13 07:21:23;;;;;;;;;3.80;3.60;;;;;20.75;100.00;99194.22;6304647;20;2742980;-47
2023/07/13 07:23:53;;;;;;;;;6.00;6.00;;;;;20.99;100.00;99199.66;6339688;20;2741952;-47
2023/07/13 07:26:22;;;;;;;;;5.40;4.60;;;;;21.22;100.00;99196.16;6306863;20;2748224;-47
2023/07/13 07:28:57;;;;;;;;;6.60;6.60;;;;;21.37;100.00;99196.31;6306819;20;2746150;-54
2023/07/13 07:31:28;;;;;;;;;4.67;4.67;;;;;21.91;100.00;99193.72;6290766;20;2732638;-46
2023/07/13 07:34:00;;;;;;;;;6.00;6.00;;;;;21.97;100.00;99209.38;6337094;20;2734673;-48
2023/07/13 07:36:29;;;;;;;;;6.40;6.40;;;;;22.55;100.00;99218.94;6337361;20;2746102;-51
2023/07/13 07:39:00;;;;;;;;;4.60;4.60;;;;;22.78;100.00;99239.97;6303086;20;2741438;-48
2023/07/13 07:41:30;;;;;;;;;5.00;5.00;;;;;22.99;100.00;99251.09;6334079;20;2745191;-47
2023/07/13 07:44:02;;;;;;;;;5.20;4.00;;;;;23.26;98.33;99256.16;6299822;20;2736853;-49
2023/07/13 07:46:30;;;;;;;;;6.67;5.67;;;;;23.42;99.58;99261.47;6279969;20;2741973;-47
2023/07/13 07:48:59;;;;;;;;;4.60;4.60;;;;;23.92;97.49;99303.75;6337793;20;2738826;-46
2023/07/13 07:51:28;;;;;;;;;3.40;3.40;;;;;24.05;95.04;99327.78;6306507;20;2738851;-50
2023/07/13 07:53:58;;;;;;;;;4.00;4.00;;;;;24.63;92.47;99382.78;6304532;20;2732692;-51
2023/07/13 07:56:27;;;;;;;;;4.60;4.60;;;;;24.65;95.58;99430.97;6305024;20;2729569;-49
2023/07/13 07:58:59;;;;;;;;;5.40;4.40;;;;;24.85;94.89;99408.38;6337023;20;2748382;-53
2023/07/13 08:01:31;;;;;;;;;5.80;4.00;;;;;25.04;94.00;99404.16;6306312;20;2745235;-53
2023/07/13 08:04:03;;;;;;;;;4.00;4.00;;;;;24.91;93.07;99399.38;6307988;20;2748290;-51
2023/07/13 08:06:34;;;;;;;;;3.33;3.33;;;;;25.15;92.52;99384.44;6279507;20;2749259;-48
2023/07/13 08:09:06;;;;;;;;;3.00;3.00;;;;;25.91;89.67;99384.69;6335635;20;2735164;-52
2023/07/13 08:11:35;;;;;;;;;4.00;4.00;;;;;25.67;86.12;99361.19;6305378;20;2733633;-50
2023/07/13 08:14:09;;;;;;;;;5.67;5.33;;;;;25.70;88.14;99377.31;6282749;20;2742123;-52
2023/07/13 08:16:38;;;;;;;;;3.00;3.00;;;;;26.03;85.16;99380.31;6337076;20;2744046;-50
2023/07/13 08:19:07;;;;;;;;;4.00;3.00;;;;;25.62;86.69;99381.06;6305784;20;2746145;-50
2023/07/13 08:21:35;;;;;;;;;5.00;5.00;;;;;24.93;90.63;99395.38;6284652;20;2738950;-47
2023/07/13 08:24:03;;;;;;;;;5.67;5.67;;;;;24.69;91.54;99382.84;6314345;20;2735709;-48
2023/07/13 08:26:31;;;;;;;;;6.67;5.67;;;;;25.90;87.31;99393.16;6311654;20;2738951;-48
2023/07/13 08:28:59;;;;;;;;;7.00;5.00;;;;;26.31;83.41;99386.84;6313361;20;2746173;-49
2023/07/13 08:31:27;;;;;;;;;5.33;5.33;;;;;25.94;83.96;99381.53;6312098;20;2741076;-50
2023/07/13 08:33:55;;;;;;;;;5.00;5.00;;;;;25.87;84.06;99383.38;6316876;20;2746132;-47
2023/07/13 08:36:25;;;;;;;;;6.00;6.00;;;;;25.87;84.54;99374.28;6316849;20;2738855;-50
2023/07/13 08:38:53;;;;;;;;;6.33;5.00;;;;;26.21;84.92;99388.03;6315115;20;2744079;-50
2023/07/13 08:41:22;;;;;;;;;6.00;5.00;;;;;26.38;81.51;99393.22;6319691;20;2732692;-51
2023/07/13 08:43:59;;;;;;;;;5.80;5.00;;;;;26.99;81.57;99404.31;6342190;20;2740937;-51
2023/07/13 08:46:36;;;;;;;;;3.33;3.33;;;;;27.03;81.60;99401.97;6286150;20;2756566;-52
2023/07/13 08:49:14;;;;;;;;;5.33;4.00;;;;;27.29;82.54;99396.53;6315802;20;2733632;-52
2023/07/13 08:51:52;;;;;;;;;4.00;4.00;;;;;27.08;82.09;99404.94;6311375;20;2752453;-52
2023/07/13 08:54:30;;;;;;;;;3.40;3.40;;;;;27.61;77.98;99399.53;6341135;20;2737799;-48
2023/07/13 08:57:03;;;;;;;;;4.00;4.00;;;;;27.67;76.37;99393.16;6284754;20;2745130;-50
2023/07/13 08:59:34;;;;;;;;;4.00;4.00;;;;;28.40;75.20;99400.50;6318241;20;2744204;-49
2023/07/13 09:02:47;;;;;;;;;4.00;4.00;;;;;27.38;75.67;99396.31;6327971;20;2742062;-49
2023/07/13 09:05:25;;;;;;;;;7.00;6.00;;;;;28.03;74.47;99405.69;6312976;20;2739924;-51
2023/07/13 09:08:18;;;;;;;;;5.00;5.00;;;;;27.68;75.31;99400.38;6314000;20;2732693;-47
2023/07/13 09:10:53;;;;;;;;;5.33;5.33;;;;;28.77;74.00;99407.19;6316519;20;2744032;-47
2023/07/13 09:13:42;;;;;;;;;5.00;5.00;;;;;28.21;72.43;99427.94;6316792;20;2733636;-47
2023/07/13 09:16:12;;;;;;;;;7.00;7.00;;;;;28.78;71.23;99416.31;6318631;20;2731584;-52
2023/07/13 09:18:54;;;;;;;;;3.00;3.00;;;;;28.45;73.99;99414.53;6315387;20;2752403;-51
2023/07/13 09:21:31;;;;;;;;;5.00;4.67;;;;;27.99;73.83;99409.94;6316151;20;2742045;-49
2023/07/13 09:24:23;;;;;;;;;3.67;3.67;;;;;28.61;71.72;99403.00;6319753;20;2743043;-47
2023/07/13 09:26:51;;;;;;;;;5.33;4.33;;;;;28.70;71.12;99416.56;6326811;20;2728446;-50
2023/07/13 09:29:34;;;;;;;;;6.00;5.67;;;;;28.89;71.10;99418.41;6319437;20;2744195;-55
2023/07/13 09:32:10;;;;;;;;;5.00;5.00;;;;;28.32;69.98;99411.78;6323275;20;2748327;-50
2023/07/13 09:34:38;;;;;;;;;4.33;4.33;;;;;28.53;70.60;99416.22;6314490;20;2748257;-50
2023/07/13 09:37:06;;;;;;;;;5.00;5.00;;;;;28.79;69.04;99404.22;6324613;20;2738821;-49
2023/07/13 09:39:39;;;;;;;;;1.80;1.80;;;;;29.35;68.39;99409.00;6342918;20;2741943;-47
2023/07/13 09:42:21;;;;;;;;;4.67;4.67;;;;;29.52;66.44;99404.63;6288458;20;2740982;-49
2023/07/13 09:44:59;;;;;;;;;6.00;6.00;;;;;29.32;66.35;99407.53;6324179;20;2738896;-52
2023/07/13 09:47:38;;;;;;;;;6.20;5.80;;;;;28.94;66.36;99407.53;6338048;20;2743064;-48
2023/07/13 09:50:16;;;;;;;;;5.00;3.33;;;;;28.83;67.25;99410.97;6287252;20;2747169;-48
2023/07/13 09:52:48;;;;;;;;;6.00;6.00;;;;;29.19;66.91;99409.53;6317724;20;2737769;-48
2023/07/13 09:55:35;;;;;;;;;6.00;5.00;;;;;29.46;64.65;99405.50;6318682;20;2738888;-47
2023/07/13 09:58:25;;;;;;;;;6.00;6.00;;;;;29.35;65.02;99409.00;6312333;20;2732580;-49
2023/07/13 10:01:04;;;;;;;;;5.67;5.33;;;;;29.90;63.44;99412.00;6325656;20;2746170;-48
2023/07/13 10:03:42;;;;;;;;;5.00;5.00;;;;;30.07;60.09;99411.41;6315784;20;2744153;-49
2023/07/13 10:06:18;;;;;;;;;3.33;3.33;;;;;29.57;62.96;99403.09;6316437;20;2744037;-50
2023/07/13 10:08:48;;;;;;;;;4.67;4.67;;;;;29.25;61.98;99414.16;6310210;20;2742054;-48
2023/07/13 10:11:24;;;;;;;;;6.67;6.67;;;;;29.18;63.75;99419.75;6317702;20;2752350;-52
2023/07/13 10:14:02;;;;;;;;;4.00;4.00;;;;;30.50;61.10;99411.41;6315806;20;2728415;-51
2023/07/13 10:16:33;;;;;;;;;5.33;5.33;;;;;29.01;65.23;99413.00;6314653;20;2735745;-47
2023/07/13 10:19:21;;;;;;;;;79.25;72.75;;;;;29.80;62.02;99411.66;6313543;20;4402301;-49
2023/07/13 10:21:59;;;;;;;;;6.33;6.33;;;;;29.56;62.78;99404.16;6315028;20;2738649;-52
2023/07/13 10:24:32;;;;;;;;;7.00;6.00;;;;;29.48;64.13;99413.59;6315305;20;2736868;-49
2023/07/13 10:27:11;;;;;;;;;7.33;5.00;;;;;30.97;59.93;99410.84;6312793;20;2744270;-51
2023/07/13 10:29:48;;;;;;;;;5.33;5.33;;;;;30.12;59.16;99411.56;6316462;20;2746105;-47
2023/07/13 10:32:16;;;;;;;;;5.33;5.33;;;;;29.97;62.05;99412.78;6323357;20;2735831;-53
2023/07/13 10:34:47;;;;;;;;;8.00;8.00;;;;;30.19;59.28;99415.13;6310559;20;2754504;-48
2023/07/13 10:37:29;;;;;;;;;6.33;6.33;;;;;30.26;57.37;99415.94;6313998;20;2745180;-51
2023/07/13 10:40:00;;;;;;;;;7.33;7.33;;;;;30.38;59.62;99421.53;6311171;20;2733643;-48
2023/07/13 10:42:38;;;;;;;;;5.67;5.33;;;;;29.86;60.70;99426.50;6313480;20;2738904;-47
2023/07/13 10:45:18;;;;;;;;;6.33;6.33;;;;;29.54;58.64;99441.22;6313663;20;2735831;-47
2023/07/13 10:47:49;;;;;;;;;6.00;6.00;;;;;29.75;59.25;99436.38;6312163;20;2734680;-47
2023/07/13 10:50:24;;;;;;;;;6.67;6.67;;;;;30.05;58.53;99424.66;6313853;20;2740002;-49
2023/07/13 10:52:56;;;;;;;;;5.00;5.00;;;;;29.98;58.74;99431.06;6316750;20;2734759;-46
2023/07/13 10:55:38;;;;;;;;;8.00;6.67;;;;;29.84;59.93;99428.66;6312610;20;2739862;-50
2023/07/13 10:58:28;;;;;;;;;4.00;4.00;;;;;30.37;58.31;99423.47;6314947;20;2740939;-48
2023/07/13 11:01:15;;;;;;;;;4.67;4.67;;;;;30.21;58.07;99429.59;6317202;20;2737799;-46
2023/07/13 11:03:43;;;;;;;;;4.00;3.33;;;;;30.67;55.13;99428.22;6317624;20;2750338;-49
2023/07/13 11:06:39;;;;;;;;;5.00;5.00;;;;;30.36;55.91;99427.34;6314540;20;2744257;-51
2023/07/13 11:09:33;;;;;;;;;7.00;5.67;;;;;30.33;57.09;99426.94;6314363;20;2728428;-50
2023/07/13 11:12:09;;;;;;;;;5.00;5.00;;;;;30.09;57.21;99423.09;6316801;20;2740911;-48
2023/07/13 11:14:42;;;;;;;;;5.33;5.33;;;;;30.84;56.61;99425.72;6315211;20;2740902;-48
2023/07/13 11:17:50;;;;;;;;;7.67;6.33;;;;;29.34;60.53;99418.38;6314804;20;2728724;-49
2023/07/13 11:20:32;;;;;;;;;9.00;7.67;;;;;30.16;57.47;99413.66;6315801;20;2744105;-51
2023/07/13 11:23:18;;;;;;;;;7.00;6.00;;;;;29.97;56.78;99421.09;6326157;20;2625751;-48
2023/07/13 11:25:47;;;;;;;;;5.33;5.33;;;;;29.75;58.35;99422.56;6305919;20;2736798;-48